createdAt,value
2018-03-22T17:56:07.670Z,16.70
2018-03-22T17:56:58.023Z,20.48
2018-03-22T17:57:47.192Z,20.35
2018-03-22T17:58:36.248Z,23.73
2018-03-22T17:59:25.390Z,27.52
2018-03-22T18:00:14.468Z,27.55
2018-03-22T18:01:03.557Z,28.75
2018-03-22T18:01:52.661Z,27.35
2018-03-22T18:02:41.740Z,25.95
2018-03-22T18:03:30.869Z,24.98
2018-03-22T18:04:19.928Z,29.75
2018-03-22T18:05:08.992Z,15.75
2018-03-22T18:05:58.102Z,22.95
2018-03-22T18:06:47.162Z,27.02
2018-03-22T18:07:36.595Z,28.08
2018-03-22T18:08:25.657Z,21.92
2018-03-22T18:09:14.785Z,22.27
2018-03-22T18:10:03.943Z,21.62
2018-03-22T18:10:53.049Z,23.27
2018-03-22T18:11:42.180Z,26.52
2018-03-22T18:12:31.790Z,26.02
2018-03-22T18:13:20.958Z,27.60
2018-03-22T18:14:10.341Z,30.08
2018-03-22T18:14:59.751Z,36.33
2018-03-22T18:15:48.932Z,40.42
2018-03-22T18:16:38.382Z,42.95
2018-03-22T18:17:27.765Z,30.33
2018-03-22T18:18:17.373Z,31.70
2018-03-22T18:19:06.485Z,24.63
2018-03-22T18:19:55.631Z,23.65
2018-03-22T18:20:44.705Z,22.77
2018-03-22T18:21:33.758Z,24.90
2018-03-22T18:22:22.901Z,26.55
2018-03-22T18:23:12.001Z,21.20
2018-03-22T18:24:01.241Z,27.62
2018-03-22T18:24:50.356Z,28.05
2018-03-22T18:25:39.418Z,38.65
2018-03-22T18:26:28.494Z,38.10
2018-03-22T18:27:17.567Z,39.92
2018-03-22T18:28:06.675Z,47.92
2018-03-22T18:28:55.746Z,62.60
2018-03-22T18:29:44.819Z,47.62
2018-03-22T18:30:33.872Z,45.72
2018-03-22T18:31:22.922Z,46.88
2018-03-22T18:32:11.997Z,35.85
2018-03-22T18:33:01.127Z,35.38
2018-03-22T18:33:50.649Z,47.15
2018-03-22T18:34:39.767Z,290.00
2018-03-22T18:35:28.949Z,86.40
2018-03-22T18:36:17.922Z,92.47
2018-03-22T18:37:07.142Z,88.53
2018-03-22T18:37:56.271Z,42.38
2018-03-22T18:38:45.353Z,58.35
2018-03-22T18:39:34.415Z,59.95
2018-03-22T18:40:23.575Z,37.78
2018-03-22T18:41:12.651Z,56.65
2018-03-22T18:42:01.761Z,70.32
2018-03-22T18:42:50.981Z,91.78
2018-03-22T18:43:40.069Z,64.07
2018-03-22T18:44:29.134Z,50.03
2018-03-22T18:45:18.198Z,86.90
2018-03-22T18:46:07.288Z,47.25
2018-03-22T18:46:56.390Z,90.35
2018-03-22T18:47:45.486Z,48.08
2018-03-22T18:48:34.844Z,36.55
2018-03-22T18:49:23.967Z,35.40
2018-03-22T18:50:13.118Z,56.13
2018-03-22T18:51:02.220Z,51.00
2018-03-22T18:51:51.327Z,41.03
2018-03-22T18:52:40.388Z,36.45
2018-03-22T18:53:29.445Z,48.17
2018-03-22T18:54:18.497Z,86.82
2018-03-22T18:55:07.565Z,80.05
2018-03-22T18:55:56.628Z,71.53
2018-03-22T18:56:46.041Z,69.93
2018-03-22T18:57:35.154Z,49.08
2018-03-22T18:58:24.205Z,45.85
2018-03-22T18:59:13.306Z,43.42
2018-03-22T19:00:02.367Z,52.08
2018-03-22T19:00:51.457Z,42.58
2018-03-22T19:01:40.940Z,37.63
2018-03-22T19:02:30.037Z,49.88
2018-03-22T19:03:19.157Z,76.35
2018-03-22T19:04:08.323Z,42.65
2018-03-22T19:04:57.393Z,67.80
2018-03-22T19:05:46.449Z,71.72
2018-03-22T19:06:35.534Z,72.93
2018-03-22T19:07:24.585Z,51.60
2018-03-22T19:08:13.644Z,51.75
2018-03-22T19:09:02.706Z,50.25
2018-03-22T19:09:51.823Z,35.10
2018-03-22T19:10:40.878Z,40.60
2018-03-22T19:11:29.976Z,54.83
2018-03-22T19:12:19.009Z,66.50
2018-03-22T19:13:08.093Z,33.83
2018-03-22T19:13:57.159Z,49.08
2018-03-22T19:14:46.241Z,50.90
2018-03-22T19:15:35.615Z,39.72
2018-03-22T19:16:24.673Z,56.15
2018-03-22T19:17:13.730Z,43.65
2018-03-22T19:18:02.791Z,47.60
2018-03-22T19:18:51.916Z,37.88
2018-03-22T19:19:40.978Z,41.70
2018-03-22T19:20:30.034Z,38.83
2018-03-22T19:21:19.148Z,39.63
2018-03-22T19:22:08.356Z,39.42
2018-03-22T19:22:57.443Z,52.53
2018-03-22T19:23:46.526Z,54.92
2018-03-22T19:24:35.610Z,42.28
2018-03-22T19:25:24.678Z,50.42
2018-03-22T19:26:13.775Z,30.30
2018-03-22T19:27:02.879Z,31.67
2018-03-22T19:27:51.992Z,19.45
2018-03-22T19:28:41.051Z,18.55
2018-03-22T19:29:30.114Z,17.67
2018-03-22T19:30:20.112Z,15.65
2018-03-22T19:31:09.183Z,13.10
2018-03-22T19:31:58.255Z,15.55
2018-03-22T19:32:47.313Z,14.48
2018-03-22T19:33:36.418Z,16.42
2018-03-22T19:34:25.491Z,18.15
2018-03-22T19:35:14.555Z,27.98
2018-03-22T19:36:03.642Z,21.87
2018-03-22T19:36:52.716Z,24.77
2018-03-22T19:37:41.778Z,30.80
2018-03-22T19:38:30.837Z,18.05
2018-03-22T19:39:20.118Z,18.15
2018-03-22T19:40:09.176Z,32.70
2018-03-22T19:40:58.237Z,20.55
2018-03-22T19:41:47.318Z,20.98
2018-03-22T19:42:36.401Z,27.83
2018-03-22T19:43:25.565Z,26.62
2018-03-22T19:44:14.632Z,21.92
2018-03-22T19:45:03.729Z,22.33
2018-03-22T19:45:52.784Z,19.55
2018-03-22T19:46:41.871Z,25.37
2018-03-22T19:47:31.004Z,30.60
2018-03-22T19:48:20.072Z,29.10
2018-03-22T19:49:09.163Z,33.90
2018-03-22T19:49:58.230Z,33.30
2018-03-22T19:50:47.281Z,31.27
2018-03-22T19:51:36.350Z,38.00
2018-03-22T19:52:25.415Z,39.95
2018-03-22T19:53:14.526Z,40.95
2018-03-22T19:54:03.986Z,49.25
2018-03-22T19:54:54.245Z,44.45
2018-03-22T19:55:43.317Z,34.65
2018-03-22T19:56:32.383Z,34.95
2018-03-22T19:57:21.529Z,29.70
2018-03-22T19:58:10.579Z,35.58
2018-03-22T19:59:00.038Z,31.67
2018-03-22T19:59:49.120Z,30.83
2018-03-22T20:00:38.186Z,33.40
2018-03-22T20:01:27.250Z,33.70
2018-03-22T20:02:16.318Z,26.25
2018-03-22T20:03:05.495Z,21.95
2018-03-22T20:03:54.546Z,23.12
2018-03-22T20:04:43.611Z,19.15
2018-03-22T20:05:32.689Z,14.75
2018-03-22T20:06:21.811Z,27.62
2018-03-22T20:07:11.134Z,20.35
2018-03-22T20:08:14.067Z,26.25
2018-03-22T20:09:03.355Z,44.30
2018-03-22T20:09:52.516Z,38.38
2018-03-22T20:10:41.573Z,23.65
2018-03-22T20:11:30.644Z,79.93
2018-03-22T20:12:19.707Z,33.10
2018-03-22T20:13:08.771Z,35.60
2018-03-22T20:13:57.886Z,39.53
2018-03-22T20:14:46.981Z,46.20
2018-03-22T20:15:36.040Z,77.45
2018-03-22T20:16:25.094Z,54.75
2018-03-22T20:17:14.318Z,27.40
2018-03-22T20:18:03.411Z,21.52
2018-03-22T20:18:52.506Z,17.42
2018-03-22T20:19:41.564Z,19.37
2018-03-22T20:20:30.629Z,17.67
2018-03-22T20:21:19.685Z,18.20
2018-03-22T20:22:08.740Z,16.77
2018-03-22T20:22:58.779Z,16.42
2018-03-22T20:23:47.840Z,17.42
2018-03-22T20:24:36.890Z,17.08
2018-03-22T20:25:25.951Z,15.65
2018-03-22T20:26:15.018Z,15.80
2018-03-22T20:27:04.082Z,14.68
2018-03-22T20:27:53.144Z,16.52
2018-03-22T20:28:43.064Z,13.88
2018-03-22T20:29:32.403Z,22.25
2018-03-22T20:30:21.458Z,18.90
2018-03-22T20:31:10.557Z,20.37
2018-03-22T20:31:59.619Z,17.50
2018-03-22T20:32:48.725Z,18.98
2018-03-22T20:33:37.810Z,21.83
2018-03-22T20:34:26.912Z,22.98
2018-03-22T20:35:15.944Z,18.67
2018-03-22T20:36:05.121Z,11.60
2018-03-22T20:36:54.183Z,18.87
2018-03-22T20:37:43.232Z,37.15
2018-03-22T20:38:32.408Z,20.12
2018-03-22T20:39:21.480Z,32.53
2018-03-22T20:40:10.574Z,27.27
2018-03-22T20:40:59.648Z,57.13
2018-03-22T20:41:48.731Z,13.77
2018-03-22T20:42:37.798Z,21.58
2018-03-22T20:43:26.860Z,28.55
2018-03-22T20:44:15.955Z,35.38
2018-03-22T20:45:05.001Z,51.45
2018-03-22T20:45:54.093Z,26.80
2018-03-22T20:46:43.151Z,21.42
2018-03-22T20:47:32.283Z,14.20
2018-03-22T20:48:21.341Z,14.77
2018-03-22T20:49:10.406Z,14.48
2018-03-22T20:49:59.510Z,16.75
2018-03-22T20:50:48.557Z,15.80
2018-03-22T20:51:37.658Z,17.45
2018-03-22T20:52:26.731Z,16.65
2018-03-22T20:53:15.789Z,17.85
2018-03-22T20:54:04.887Z,23.67
2018-03-22T20:54:53.953Z,23.77
2018-03-22T20:55:43.108Z,22.05
2018-03-22T20:56:32.171Z,22.13
2018-03-22T20:57:21.233Z,16.17
2018-03-22T20:58:10.293Z,20.35
2018-03-22T20:58:59.349Z,19.55
2018-03-22T20:59:48.477Z,18.62
2018-03-22T21:00:37.538Z,16.85
2018-03-22T21:01:26.615Z,17.05
2018-03-22T21:02:15.695Z,17.00
2018-03-22T21:03:04.774Z,15.52
2018-03-22T21:03:53.972Z,13.45
2018-03-22T21:04:43.382Z,15.45
2018-03-22T21:05:32.439Z,15.63
2018-03-22T21:06:21.512Z,15.65
2018-03-22T21:07:10.561Z,16.55
2018-03-22T21:07:59.622Z,16.25
2018-03-22T21:08:48.714Z,14.87
2018-03-22T21:09:37.813Z,11.48
2018-03-22T21:10:26.859Z,11.90
2018-03-22T21:11:15.912Z,10.15
2018-03-22T21:12:04.978Z,12.32
2018-03-22T21:12:54.031Z,12.35
2018-03-22T21:13:43.084Z,11.18
2018-03-22T21:14:32.129Z,9.00
2018-03-22T21:15:21.405Z,10.00
2018-03-22T21:16:10.461Z,11.38
2018-03-22T21:16:59.522Z,12.43
2018-03-22T21:17:48.591Z,14.95
2018-03-22T21:18:37.642Z,15.60
2018-03-22T21:19:26.698Z,14.87
2018-03-22T21:20:15.807Z,16.02
2018-03-22T21:21:04.870Z,16.83
2018-03-22T21:21:53.976Z,19.35
2018-03-22T21:22:43.026Z,13.85
2018-03-22T21:23:32.091Z,11.82
2018-03-22T21:24:21.146Z,11.73
2018-03-22T21:25:10.204Z,14.07
2018-03-22T21:25:59.273Z,12.07
2018-03-22T21:26:48.367Z,11.60
2018-03-22T21:27:37.513Z,13.95
2018-03-22T21:28:26.560Z,14.32
2018-03-22T21:29:15.652Z,12.05
2018-03-22T21:30:04.762Z,10.98
2018-03-22T21:30:53.822Z,11.63
2018-03-22T21:31:42.869Z,8.95
2018-03-22T21:32:31.923Z,10.60
2018-03-22T21:33:21.099Z,10.00
2018-03-22T21:34:10.168Z,10.43
2018-03-22T21:34:59.216Z,10.77
2018-03-22T21:35:48.272Z,11.85
2018-03-22T21:36:37.365Z,10.93
2018-03-22T21:37:26.420Z,13.07
2018-03-22T21:38:15.464Z,15.32
2018-03-22T21:39:04.648Z,12.43
2018-03-22T21:39:53.704Z,12.93
2018-03-22T21:40:42.750Z,14.50
2018-03-22T21:41:31.809Z,14.77
2018-03-22T21:42:20.864Z,14.20
2018-03-22T21:43:09.921Z,9.15
2018-03-22T21:44:10.883Z,12.23
2018-03-22T21:44:59.973Z,15.82
2018-03-22T21:45:49.083Z,11.73
2018-03-22T21:46:38.162Z,15.48
2018-03-22T21:47:32.236Z,13.52
2018-03-22T21:48:21.304Z,10.45
2018-03-22T21:49:10.391Z,10.63
2018-03-22T21:49:59.541Z,13.68
2018-03-22T21:50:49.439Z,10.80
2018-03-22T21:51:38.598Z,10.43
2018-03-22T21:52:39.501Z,9.80
2018-03-22T21:53:28.564Z,8.82
2018-03-22T21:54:17.612Z,9.20
2018-03-22T21:55:06.719Z,8.80
2018-03-22T21:55:55.777Z,10.48
2018-03-22T21:56:44.838Z,11.50
2018-03-22T21:57:33.897Z,8.85
2018-03-22T21:58:22.945Z,8.63
2018-03-22T21:59:12.005Z,8.20
2018-03-22T22:00:01.090Z,7.18
2018-03-22T22:00:50.244Z,8.02
2018-03-22T22:01:39.326Z,9.25
2018-03-22T22:02:28.385Z,10.15
2018-03-22T22:03:17.449Z,12.25
2018-03-22T22:04:06.509Z,12.55
2018-03-22T22:04:55.593Z,10.50
2018-03-22T22:05:44.658Z,8.70
2018-03-22T22:06:33.864Z,7.53
2018-03-22T22:07:22.945Z,8.00
2018-03-22T22:08:12.001Z,8.43
2018-03-22T22:09:01.065Z,7.03
2018-03-22T22:09:50.112Z,8.45
2018-03-22T22:10:39.210Z,9.20
2018-03-22T22:11:28.282Z,8.65
2018-03-22T22:12:17.333Z,8.52
2018-03-22T22:13:06.372Z,9.15
2018-03-22T22:13:55.427Z,9.45
2018-03-22T22:14:44.472Z,9.82
2018-03-22T22:15:33.642Z,9.82
2018-03-22T22:16:22.689Z,8.38
2018-03-22T22:17:11.748Z,8.98
2018-03-22T22:18:00.805Z,8.63
2018-03-22T22:18:49.860Z,10.02
2018-03-22T22:19:38.910Z,9.60
2018-03-22T22:20:27.966Z,9.38
2018-03-22T22:21:17.053Z,10.43
2018-03-22T22:22:06.097Z,9.60
2018-03-22T22:22:55.142Z,9.48
2018-03-22T22:23:44.184Z,9.13
2018-03-22T22:24:33.232Z,9.77
2018-03-22T22:25:22.280Z,9.18
2018-03-22T22:26:12.163Z,8.32
2018-03-22T22:27:01.287Z,7.30
2018-03-22T22:27:50.321Z,7.62
2018-03-22T22:28:39.369Z,7.35
2018-03-22T22:29:28.410Z,7.68
2018-03-22T22:30:17.478Z,8.40
2018-03-22T22:31:06.527Z,9.05
2018-03-22T22:31:55.582Z,8.38
2018-03-22T22:32:44.821Z,7.72
2018-03-22T22:33:33.879Z,8.38
2018-03-22T22:34:22.924Z,8.02
2018-03-22T22:35:11.969Z,7.47
2018-03-22T22:36:01.036Z,7.37
2018-03-22T22:36:50.097Z,7.85
2018-03-22T22:37:39.142Z,7.20
2018-03-22T22:38:28.346Z,7.95
2018-03-22T22:39:17.420Z,7.97
2018-03-22T22:40:06.470Z,9.80
2018-03-22T22:40:55.513Z,8.45
2018-03-22T22:41:44.561Z,7.72
2018-03-22T22:42:33.616Z,8.73
2018-03-22T22:43:22.671Z,8.27
2018-03-22T22:44:11.773Z,8.30
2018-03-22T22:45:00.827Z,8.20
2018-03-22T22:45:49.878Z,9.20
2018-03-22T22:46:38.930Z,10.63
2018-03-22T22:47:27.988Z,10.63
2018-03-22T22:48:17.044Z,9.50
2018-03-22T22:49:06.101Z,8.70
2018-03-22T22:49:55.194Z,8.27
2018-03-22T22:50:44.252Z,8.30
2018-03-22T22:51:33.490Z,7.10
2018-03-22T22:52:22.540Z,6.82
2018-03-22T22:53:11.590Z,6.57
2018-03-22T22:54:00.636Z,6.95
2018-03-22T22:54:49.687Z,6.78
2018-03-22T22:55:38.924Z,7.15
2018-03-22T22:56:27.971Z,8.10
2018-03-22T22:57:17.023Z,8.15
2018-03-22T22:58:06.075Z,8.23
2018-03-22T22:58:55.136Z,7.22
2018-03-22T22:59:44.181Z,6.87
2018-03-22T23:00:33.230Z,6.87
2018-03-22T23:01:22.444Z,5.93
2018-03-22T23:02:11.488Z,5.95
2018-03-22T23:03:00.651Z,6.35
2018-03-22T23:03:49.705Z,5.25
2018-03-22T23:04:38.749Z,5.93
2018-03-22T23:05:27.824Z,4.90
2018-03-22T23:06:16.982Z,5.60
2018-03-22T23:07:06.055Z,5.50
2018-03-22T23:07:55.100Z,8.75
2018-03-22T23:08:44.165Z,5.25
2018-03-22T23:09:33.229Z,4.60
2018-03-22T23:10:22.376Z,4.78
2018-03-22T23:11:11.422Z,5.85
2018-03-22T23:12:00.472Z,4.82
2018-03-22T23:12:49.516Z,6.18
2018-03-22T23:13:38.561Z,5.85
2018-03-22T23:14:27.613Z,6.03
2018-03-22T23:15:16.663Z,5.12
2018-03-22T23:16:05.778Z,4.93
2018-03-22T23:16:54.826Z,5.32
2018-03-22T23:17:43.872Z,5.72
2018-03-22T23:18:32.948Z,4.90
2018-03-22T23:19:21.995Z,4.47
2018-03-22T23:20:11.085Z,4.60
2018-03-22T23:21:00.139Z,4.22
2018-03-22T23:21:49.186Z,4.47
2018-03-22T23:22:38.234Z,4.50
2018-03-22T23:23:27.290Z,5.00
2018-03-22T23:24:16.342Z,4.93
2018-03-22T23:25:05.512Z,4.57
2018-03-22T23:25:54.589Z,5.20
2018-03-22T23:26:43.638Z,4.80
2018-03-22T23:27:32.678Z,5.00
2018-03-22T23:28:21.882Z,4.78
2018-03-22T23:29:10.918Z,4.35
2018-03-22T23:29:59.968Z,7.22
2018-03-22T23:30:49.104Z,6.65
2018-03-22T23:31:38.148Z,9.38
2018-03-22T23:32:27.200Z,11.32
2018-03-22T23:33:16.268Z,12.98
2018-03-22T23:34:05.379Z,17.33
2018-03-22T23:34:54.627Z,18.45
2018-03-22T23:35:43.699Z,22.58
2018-03-22T23:36:32.781Z,25.35
2018-03-22T23:37:21.838Z,24.08
2018-03-22T23:38:10.891Z,26.92
2018-03-22T23:39:00.035Z,24.05
2018-03-22T23:39:49.096Z,24.27
2018-03-22T23:40:38.140Z,15.85
2018-03-22T23:41:27.190Z,16.40
2018-03-22T23:42:16.250Z,11.32
2018-03-22T23:43:05.532Z,12.07
2018-03-22T23:43:54.578Z,9.23
2018-03-22T23:44:43.702Z,9.68
2018-03-22T23:45:32.752Z,9.63
2018-03-22T23:46:21.793Z,9.15
2018-03-22T23:47:10.876Z,9.32
2018-03-22T23:47:59.923Z,9.07
2018-03-22T23:48:48.961Z,8.65
2018-03-22T23:49:38.041Z,6.12
2018-03-22T23:50:27.120Z,6.10
2018-03-22T23:51:16.161Z,5.68
2018-03-22T23:52:05.197Z,4.25
2018-03-22T23:52:54.285Z,4.15
2018-03-22T23:53:43.342Z,4.30
2018-03-22T23:54:32.400Z,3.37
2018-03-22T23:55:21.433Z,4.07
2018-03-22T23:56:10.484Z,4.22
2018-03-22T23:56:59.519Z,3.85
2018-03-22T23:57:48.550Z,3.58
2018-03-22T23:58:37.767Z,3.90
2018-03-22T23:59:26.818Z,9.35
